« Back
NWS Peachtree City, Ga » Text Product » MCN Terminal Aerodrome Forecast


Printer-friendly Version
Current Version              Previous Versions:   1  2  3  4  5  6  7  8  9  

Terminal Aerodrome Forecast

193
FTUS42 KFFC 280523
TAFMCN
TAF
KMCN 280523Z 2806/2906 10003KT P6SM SKC
     FM281400 08007KT P6SM SCT045
     FM282100 07009KT P6SM FEW060
     FM290100 09004KT P6SM SCT250=



USA.gov is the U.S. government's official web portal to all federal, state and local government web resources and services.